Time;durP1;ratioP1;P1;durP2;ratioP2;P2;SDS_P1;SDS_P2;PMS_P1;PMS_P2;Temp;Humidity;BMP_temperature;BMP_pressure;BME280_temperature;BME280_humidity;BME280_pressure;Samples;Min_cycle;Max_cycle;Signal;HPM_P1;HPM_P2
2022/01/13 01:36:55;;;;;;;38.40;18.23;;;;;;;-1.04;100.00;103050.97;5820100;22;20131;-69
2022/01/13 01:39:47;;;;;;;39.78;19.63;;;;;;;-1.08;100.00;103045.56;5074951;28;20139;-69
2022/01/13 01:51:25;;;;;;;31.67;17.08;;;;;;;-0.55;100.00;103049.94;5301178;23;20099;-70
2022/01/13 01:54:11;;;;;;;36.60;17.63;;;;;;;-0.64;100.00;103042.50;5041427;28;20059;-70
2022/01/13 01:57:00;;;;;;;30.88;17.05;;;;;;;-0.54;100.00;103046.56;5041919;28;20441;-69
2022/01/13 01:59:46;;;;;;;32.58;16.77;;;;;;;-0.55;100.00;103048.22;5056367;28;20037;-69
2022/01/13 02:02:32;;;;;;;34.20;17.17;;;;;;;-0.90;100.00;103050.22;5041504;28;20052;-69
2022/01/13 02:05:17;;;;;;;32.63;16.88;;;;;;;-0.84;100.00;103042.88;5056073;28;20047;-69
2022/01/13 02:08:05;;;;;;;30.95;15.90;;;;;;;-0.94;100.00;103037.94;5056183;28;20111;-70
2022/01/13 02:10:51;;;;;;;30.90;16.10;;;;;;;-1.36;100.00;103036.78;5056751;28;20032;-70
2022/01/13 02:13:44;;;;;;;33.60;16.83;;;;;;;-1.21;100.00;103038.69;5055894;28;20364;-70
2022/01/13 02:19:19;;;;;;;35.28;17.95;;;;;;;-1.17;100.00;103043.25;5056655;28;20025;-71
2022/01/13 02:22:06;;;;;;;34.75;17.27;;;;;;;-1.16;100.00;103039.00;5041012;28;20033;-71
2022/01/13 02:24:52;;;;;;;34.38;17.25;;;;;;;-1.09;100.00;103048.91;5056692;28;20460;-71
2022/01/13 02:27:38;;;;;;;35.78;17.80;;;;;;;-1.05;100.00;103046.63;5054815;28;20059;-71
2022/01/13 02:30:24;;;;;;;36.80;18.73;;;;;;;-0.76;100.00;103054.56;5056372;28;20472;-69
2022/01/13 02:33:10;;;;;;;36.67;17.77;;;;;;;-1.06;100.00;103051.69;5055942;28;20029;-70
2022/01/13 02:35:56;;;;;;;32.05;16.90;;;;;;;-1.05;100.00;103049.22;5055619;28;20025;-70
2022/01/13 02:38:41;;;;;;;36.45;17.65;;;;;;;-1.07;100.00;103052.47;5055274;28;20079;-71
2022/01/13 02:41:28;;;;;;;31.90;16.25;;;;;;;-1.61;100.00;103046.22;5057077;28;20040;-70
2022/01/13 02:44:17;;;;;;;32.20;16.80;;;;;;;-1.66;100.00;103055.25;5055504;28;20033;-70
2022/01/13 02:47:21;;;;;;;32.90;17.00;;;;;;;-1.24;100.00;103060.75;5055849;28;20176;-70
2022/01/13 02:50:08;;;;;;;32.03;17.08;;;;;;;-1.46;100.00;103049.81;5039517;28;20064;-70
2022/01/13 02:52:54;;;;;;;31.95;17.60;;;;;;;-1.51;100.00;103057.22;5055693;28;20044;-70
2022/01/13 02:55:40;;;;;;;33.30;17.15;;;;;;;-1.52;100.00;103060.56;5056510;28;20123;-70
2022/01/13 03:02:33;;;;;;;30.88;16.38;;;;;;;-1.13;100.00;103055.53;5054475;28;20032;-69
2022/01/13 03:23:44;;;;;;;31.60;16.58;;;;;;;-1.44;100.00;103040.53;5605744;23;20350;-69
2022/01/13 03:26:29;;;;;;;29.70;16.65;;;;;;;-0.99;100.00;103052.19;5054359;28;20020;-70
2022/01/13 03:29:18;;;;;;;34.72;16.98;;;;;;;-0.97;100.00;103049.69;5058675;28;20024;-70
2022/01/13 03:32:04;;;;;;;30.63;17.27;;;;;;;-0.82;100.00;103045.56;5059086;28;20102;-70
2022/01/13 03:40:17;;;;;;;31.05;15.90;;;;;;;-1.22;100.00;103051.44;6046830;22;20012;-69
2022/01/13 03:43:04;;;;;;;37.60;16.88;;;;;;;-1.39;100.00;103052.00;5054647;28;20048;-69
2022/01/13 03:51:00;;;;;;;39.20;19.02;;;;;;;-1.83;100.00;103049.00;5232790;22;20060;-69
2022/01/13 03:54:20;;;;;;;35.22;18.20;;;;;;;-2.05;100.00;103053.41;5054531;28;20029;-69
2022/01/13 03:57:34;;;;;;;34.40;18.38;;;;;;;-1.79;100.00;103050.97;5052974;28;20032;-69
2022/01/13 04:00:51;;;;;;;36.00;17.95;;;;;;;-1.90;100.00;103054.47;5054835;28;20351;-71
2022/01/13 04:03:37;;;;;;;39.75;19.23;;;;;;;-2.09;100.00;103047.97;5054225;28;20474;-70
2022/01/13 04:06:44;;;;;;;38.63;18.40;;;;;;;-1.90;100.00;103054.47;5053075;28;20048;-70
2022/01/13 04:16:21;;;;;;;38.50;19.20;;;;;;;-1.80;100.00;103056.88;5534549;22;20048;-70
2022/01/13 04:19:07;;;;;;;35.50;18.10;;;;;;;-1.66;100.00;103056.16;5054694;28;20470;-70
2022/01/13 04:21:53;;;;;;;34.58;18.20;;;;;;;-1.73;100.00;103064.25;5052822;28;20063;-70
2022/01/13 04:24:43;;;;;;;35.25;17.30;;;;;;;-1.86;100.00;103071.88;5054242;28;20514;-70
2022/01/13 04:27:35;;;;;;;36.35;18.13;;;;;;;-1.96;100.00;103081.41;5053962;28;20112;-70
2022/01/13 04:33:07;;;;;;;31.02;18.05;;;;;;;-1.91;100.00;103080.06;5054141;28;20457;-71
2022/01/13 04:35:52;;;;;;;36.15;18.40;;;;;;;-1.91;100.00;103072.34;5053708;28;20021;-69
2022/01/13 04:42:30;;;;;;;39.15;18.80;;;;;;;-2.00;100.00;103067.50;5054391;28;20469;-70
2022/01/13 04:45:15;;;;;;;40.58;19.33;;;;;;;-1.83;100.00;103063.50;5053894;28;20055;-70
2022/01/13 05:04:33;;;;;;;39.90;20.75;;;;;;;-1.86;100.00;103086.41;5455336;22;20057;-70
2022/01/13 05:07:19;;;;;;;44.45;21.73;;;;;;;-2.09;100.00;103081.34;5053005;28;20029;-70
2022/01/13 05:10:06;;;;;;;38.80;20.90;;;;;;;-2.06;100.00;103081.53;5053826;28;20364;-69
2022/01/13 05:12:56;;;;;;;41.03;20.67;;;;;;;-1.79;100.00;103086.06;5057216;28;20053;-71
2022/01/13 05:15:44;;;;;;;38.30;20.55;;;;;;;-1.77;100.00;103087.94;5056557;28;20039;-70
2022/01/13 05:19:20;;;;;;;44.47;21.13;;;;;;;-2.01;100.00;103090.50;5057611;28;20079;-69
2022/01/13 05:24:40;;;;;;;43.70;20.65;;;;;;;-1.88;100.00;103093.13;5058003;28;20029;-70
2022/01/13 05:27:27;;;;;;;48.22;22.92;;;;;;;-1.84;100.00;103097.69;5057717;28;20533;-70
2022/01/13 05:30:15;;;;;;;45.47;22.60;;;;;;;-2.00;100.00;103094.84;5057241;28;20025;-68
2022/01/13 05:33:01;;;;;;;43.70;22.17;;;;;;;-2.11;100.00;103099.22;5057225;28;20056;-69
2022/01/13 05:35:47;;;;;;;44.53;21.95;;;;;;;-1.86;100.00;103096.66;5057249;28;20029;-70
2022/01/13 05:38:33;;;;;;;42.65;22.23;;;;;;;-1.97;100.00;103101.06;5056589;28;20029;-71
2022/01/13 05:41:19;;;;;;;44.05;21.95;;;;;;;-1.89;100.00;103104.19;5056329;28;20029;-69
2022/01/13 05:44:09;;;;;;;44.50;22.50;;;;;;;-1.79;100.00;103104.94;5056919;28;20021;-69
2022/01/13 05:46:55;;;;;;;39.97;20.80;;;;;;;-1.92;100.00;103114.25;5057766;28;20541;-71
2022/01/13 05:49:42;;;;;;;40.72;20.95;;;;;;;-1.64;100.00;103120.53;5057130;28;20025;-71
2022/01/13 05:52:28;;;;;;;41.83;22.05;;;;;;;-1.72;100.00;103121.66;5057070;28;20445;-70
2022/01/13 05:55:15;;;;;;;45.38;22.48;;;;;;;-1.60;100.00;103128.53;5054888;28;20358;-69
2022/01/13 05:58:03;;;;;;;46.13;23.83;;;;;;;-1.27;100.00;103129.97;5056573;28;20028;-70
2022/01/13 06:00:49;;;;;;;43.45;22.65;;;;;;;-1.35;100.00;103124.31;5057088;28;20453;-70
2022/01/13 06:03:34;;;;;;;45.15;23.85;;;;;;;-1.22;100.00;103116.66;5055826;28;20458;-69
2022/01/13 06:06:20;;;;;;;49.00;24.23;;;;;;;-0.85;100.00;103112.25;5056333;28;20122;-70
2022/01/13 06:09:06;;;;;;;45.65;23.42;;;;;;;-0.78;100.00;103128.22;5056951;28;20025;-70
2022/01/13 06:11:57;;;;;;;48.92;23.67;;;;;;;-0.64;100.00;103129.13;5057247;28;20488;-69
2022/01/13 06:14:43;;;;;;;50.63;24.45;;;;;;;-0.57;100.00;103139.03;5056194;28;20029;-70
2022/01/13 06:17:29;;;;;;;41.20;22.20;;;;;;;-0.98;100.00;103126.00;5056498;28;20364;-71
2022/01/13 06:20:17;;;;;;;46.95;22.23;;;;;;;-0.71;100.00;103132.09;5056169;28;20099;-69
2022/01/13 06:23:04;;;;;;;54.75;23.88;;;;;;;-0.55;100.00;103137.47;5056291;28;20044;-70
2022/01/13 06:25:50;;;;;;;50.05;25.23;;;;;;;-0.02;100.00;103139.22;5056145;28;20028;-69
2022/01/13 06:28:36;;;;;;;43.35;23.70;;;;;;;0.04;100.00;103137.91;5056639;28;20418;-70
2022/01/13 06:31:21;;;;;;;47.33;24.75;;;;;;;0.14;100.00;103147.13;5057068;28;20376;-70
2022/01/13 06:34:08;;;;;;;52.38;26.67;;;;;;;0.25;100.00;103148.69;5054358;28;20025;-69
2022/01/13 06:36:54;;;;;;;55.63;26.10;;;;;;;-0.21;100.00;103152.63;5057017;28;20419;-69
2022/01/13 06:39:39;;;;;;;51.88;25.00;;;;;;;-0.38;100.00;103149.75;5055597;28;20052;-70
2022/01/13 06:46:16;;;;;;;57.17;27.73;;;;;;;-0.09;100.00;103157.66;5551197;22;20079;-70
2022/01/13 06:49:02;;;;;;;56.72;28.60;;;;;;;-0.32;100.00;103158.75;5054128;28;20465;-69
2022/01/13 06:51:51;;;;;;;52.45;27.42;;;;;;;-0.12;100.00;103160.06;5053061;28;20047;-69
2022/01/13 07:00:18;;;;;;;54.47;28.80;;;;;;;0.64;100.00;103169.19;5583789;22;20436;-70
2022/01/13 07:03:04;;;;;;;57.80;31.00;;;;;;;0.46;100.00;103167.16;5053724;28;20028;-69
2022/01/13 07:05:50;;;;;;;51.45;26.90;;;;;;;-0.22;100.00;103152.50;5054186;28;20039;-69
2022/01/13 07:08:36;;;;;;;51.10;26.90;;;;;;;0.28;100.00;103164.34;5055698;28;20044;-69
2022/01/13 07:11:22;;;;;;;53.75;26.88;;;;;;;0.55;100.00;103154.88;5054968;28;20033;-69
2022/01/13 07:14:08;;;;;;;49.17;26.35;;;;;;;0.55;100.00;103166.06;5055111;28;20024;-70
2022/01/13 07:16:54;;;;;;;54.80;28.38;;;;;;;-0.23;100.00;103156.75;5055103;28;20020;-70
2022/01/13 07:19:40;;;;;;;54.38;28.52;;;;;;;-0.65;100.00;103163.38;5054993;28;20127;-70
2022/01/13 07:22:26;;;;;;;62.42;31.40;;;;;;;-0.84;100.00;103148.38;5054718;28;20100;-69
2022/01/13 07:25:11;;;;;;;48.28;25.15;;;;;;;-0.61;100.00;103157.63;5054977;28;20139;-69
2022/01/13 07:27:58;;;;;;;29.85;16.55;;;;;;;-0.69;100.00;103156.22;5054496;28;20029;-69
2022/01/13 07:30:44;;;;;;;32.13;15.50;;;;;;;-0.34;100.00;103162.94;5056653;28;20025;-71
2022/01/13 07:33:29;;;;;;;27.17;15.15;;;;;;;-0.34;100.00;103164.59;5054697;28;20040;-69
2022/01/13 07:36:15;;;;;;;28.42;16.40;;;;;;;-0.21;100.00;103172.31;5054944;28;20040;-69
2022/01/13 07:39:02;;;;;;;32.67;15.93;;;;;;;-0.18;100.00;103175.09;5054763;28;20473;-69
2022/01/13 07:41:47;;;;;;;31.08;16.58;;;;;;;-0.23;100.00;103177.38;5055377;28;20113;-70
2022/01/13 07:44:33;;;;;;;31.30;15.65;;;;;;;-0.15;100.00;103178.75;5054481;28;20060;-70
2022/01/13 07:47:19;;;;;;;32.25;16.30;;;;;;;-0.30;100.00;103172.63;5054926;28;20053;-70
2022/01/13 07:50:10;;;;;;;34.40;17.63;;;;;;;-0.28;100.00;103175.31;5054432;28;20338;-69
2022/01/13 07:52:55;;;;;;;34.58;17.05;;;;;;;-0.48;100.00;103179.13;5054745;28;20457;-70
2022/01/13 07:55:42;;;;;;;36.13;17.15;;;;;;;-0.53;100.00;103180.53;5052729;28;20029;-69
2022/01/13 07:58:28;;;;;;;32.13;16.85;;;;;;;-0.31;100.00;103180.25;5054878;28;20112;-69
2022/01/13 08:01:14;;;;;;;29.95;15.60;;;;;;;-0.31;100.00;103193.13;5054571;28;20055;-69
2022/01/13 08:04:00;;;;;;;34.05;17.95;;;;;;;0.07;100.00;103198.19;5054206;28;20031;-70
2022/01/13 08:06:45;;;;;;;31.10;16.33;;;;;;;0.04;100.00;103191.13;5054376;28;20377;-69
2022/01/13 08:13:13;;;;;;;35.53;18.10;;;;;;;-0.12;100.00;103178.09;5055007;28;20025;-70
2022/01/13 08:16:02;;;;;;;37.40;19.52;;;;;;;-0.14;100.00;103188.28;5054703;28;20433;-70
2022/01/13 08:19:49;;;;;;;36.17;19.20;;;;;;;0.07;100.00;103198.19;5052768;28;20517;-70
2022/01/13 08:22:03;;;;;;;37.45;19.00;;;;;;;0.21;100.00;103200.84;5050245;28;20036;-71
2022/01/13 08:24:49;;;;;;;38.88;20.20;;;;;;;0.47;100.00;103211.09;5055730;28;20107;-70
2022/01/13 08:27:35;;;;;;;35.33;19.02;;;;;;;0.50;100.00;103225.88;5054979;28;20500;-70
2022/01/13 08:30:21;;;;;;;38.63;20.63;;;;;;;0.50;100.00;103226.78;5054241;28;20040;-70
2022/01/13 08:33:22;;;;;;;40.67;21.88;;;;;;;0.41;100.00;103223.63;5051966;28;20029;-69
2022/01/13 08:36:08;;;;;;;44.65;22.13;;;;;;;0.41;100.00;103204.69;5054084;28;20032;-70
2022/01/13 08:42:36;;;;;;;37.97;21.05;;;;;;;0.80;100.00;103202.88;5054690;28;20021;-69
2022/01/13 08:45:22;;;;;;;40.45;21.40;;;;;;;0.82;100.00;103188.38;5052261;28;20039;-69
2022/01/13 08:48:10;;;;;;;40.30;20.92;;;;;;;0.68;100.00;103186.63;5057985;28;20104;-70
2022/01/13 08:50:56;;;;;;;42.28;21.08;;;;;;;0.53;100.00;103179.66;5057564;28;20029;-69
2022/01/13 08:53:42;;;;;;;40.95;21.85;;;;;;;0.60;100.00;103171.50;5057714;28;20032;-69
2022/01/13 08:56:28;;;;;;;45.25;22.50;;;;;;;0.21;100.00;103162.19;5057229;28;20029;-69
2022/01/13 08:59:14;;;;;;;46.40;22.63;;;;;;;0.41;100.00;103156.59;5057861;28;20051;-70
2022/01/13 09:02:00;;;;;;;53.72;24.33;;;;;;;0.46;100.00;103178.38;5057782;28;20099;-71
2022/01/13 09:04:45;;;;;;;42.20;23.65;;;;;;;0.57;100.00;103176.47;5057848;28;20449;-69
2022/01/13 09:07:31;;;;;;;49.75;25.25;;;;;;;0.63;100.00;103176.84;5057294;28;20028;-71
2022/01/13 09:13:59;;;;;;;45.17;23.65;;;;;;;0.71;100.00;103162.72;5057717;28;20052;-69
2022/01/13 09:16:47;;;;;;;44.70;22.48;;;;;;;0.36;100.00;103162.25;5057745;28;20498;-69
2022/01/13 09:19:33;;;;;;;45.85;24.10;;;;;;;0.46;100.00;103149.13;5057245;28;20029;-70
2022/01/13 09:22:19;;;;;;;45.05;22.80;;;;;;;0.59;100.00;103144.81;5057342;28;20033;-70
2022/01/13 09:25:12;;;;;;;43.13;22.00;;;;;;;0.50;100.00;103131.34;5057853;28;20090;-71
2022/01/13 09:27:58;;;;;;;41.33;21.00;;;;;;;0.58;100.00;103130.13;5056550;28;20025;-70
2022/01/13 09:30:44;;;;;;;38.83;20.02;;;;;;;0.58;100.00;103124.97;5055536;28;20061;-70
2022/01/13 09:33:33;;;;;;;40.78;19.30;;;;;;;0.90;100.00;103119.16;5056078;28;20032;-69
2022/01/13 09:46:40;;;;;;;37.33;19.75;;;;;;;0.74;100.00;103093.25;5114305;22;20500;-70
2022/01/13 09:49:26;;;;;;;37.80;19.45;;;;;;;0.66;100.00;103077.31;5057287;28;20057;-70
2022/01/13 09:52:15;;;;;;;35.50;18.85;;;;;;;0.64;100.00;103080.63;5056682;28;20377;-70
2022/01/13 09:55:01;;;;;;;34.88;19.30;;;;;;;0.52;100.00;103077.28;5054405;28;20033;-70
2022/01/13 09:57:50;;;;;;;38.28;20.35;;;;;;;0.47;100.00;103083.88;5055248;28;20033;-70
2022/01/13 10:00:38;;;;;;;41.08;21.23;;;;;;;0.69;100.00;103090.41;5054993;28;20040;-70
2022/01/13 10:03:27;;;;;;;40.65;20.83;;;;;;;0.56;100.00;103085.28;5055025;28;20102;-71
2022/01/13 10:40:01;;;;;;;37.88;19.60;;;;;;;0.99;100.00;103078.41;6160395;22;20126;-70
2022/01/13 10:45:49;;;;;;;39.35;19.88;;;;;;;0.52;100.00;103060.13;5030834;28;20018;-69
2022/01/13 10:48:37;;;;;;;39.60;20.65;;;;;;;0.67;100.00;103063.63;5016842;28;20101;-70
2022/01/13 10:51:24;;;;;;;41.78;21.42;;;;;;;0.49;100.00;103061.63;5015704;28;20030;-71
2022/01/13 10:54:24;;;;;;;42.47;21.55;;;;;;;0.56;100.00;103049.19;5015256;28;20061;-69
2022/01/13 10:57:18;;;;;;;43.05;21.45;;;;;;;0.66;100.00;103056.69;5000951;28;20034;-70
2022/01/13 11:00:27;;;;;;;44.42;21.73;;;;;;;0.45;100.00;103051.94;5000958;28;20018;-69
2022/01/13 11:03:22;;;;;;;42.28;21.15;;;;;;;0.44;100.00;103053.59;5014954;28;20021;-71
2022/01/13 11:06:09;;;;;;;43.33;21.95;;;;;;;0.50;100.00;103046.25;5015008;28;20053;-72
2022/01/13 11:09:00;;;;;;;42.80;21.58;;;;;;;0.52;100.00;103036.91;5015374;28;20459;-70
2022/01/13 11:11:56;;;;;;;41.25;21.27;;;;;;;0.39;100.00;103025.78;5015555;28;20135;-70
2022/01/13 11:14:47;;;;;;;41.53;21.58;;;;;;;0.45;100.00;103023.56;5014509;28;20447;-70
2022/01/13 11:17:37;;;;;;;40.72;21.15;;;;;;;0.44;100.00;103032.97;5014329;28;20072;-72
2022/01/13 11:56:37;;;;;;;36.40;18.15;;;;;;;0.56;100.00;103025.97;5294703;22;20052;-71
2022/01/13 11:59:22;;;;;;;33.33;17.27;;;;;;;0.61;100.00;103003.03;5054785;28;20327;-69
2022/01/13 12:02:25;;;;;;;33.22;18.00;;;;;;;0.55;100.00;102993.25;5054538;28;20029;-69
2022/01/13 12:05:24;;;;;;;33.40;18.02;;;;;;;0.60;100.00;102978.94;5054881;28;20020;-71
2022/01/13 12:08:51;;;;;;;31.45;17.40;;;;;;;0.88;100.00;102987.47;5053397;28;20029;-69
2022/01/13 12:11:45;;;;;;;33.38;16.95;;;;;;;1.14;100.00;102992.44;5053565;28;20036;-70
2022/01/13 12:14:31;;;;;;;35.78;17.50;;;;;;;1.17;100.00;102992.63;5054135;28;20028;-70
2022/01/13 12:22:45;;;;;;;33.08;18.15;;;;;;;0.82;100.00;102981.06;4899444;26;20055;-70
2022/01/13 12:25:32;;;;;;;54.65;18.90;;;;;;;0.70;100.00;102986.41;5058967;28;20028;-70
2022/01/13 12:28:18;;;;;;;32.55;16.50;;;;;;;0.77;100.00;102982.50;5074099;28;20059;-70
2022/01/13 12:31:30;;;;;;;32.85;17.17;;;;;;;0.87;100.00;102982.22;5072942;28;20094;-70
2022/01/13 12:34:43;;;;;;;37.17;18.95;;;;;;;0.67;100.00;102985.34;5059991;28;20033;-70
2022/01/13 12:37:30;;;;;;;38.47;18.10;;;;;;;0.47;100.00;102979.03;5075120;28;20036;-69
2022/01/13 12:41:12;;;;;;;36.78;18.92;;;;;;;0.56;100.00;102983.84;5073880;28;20029;-70
2022/01/13 12:44:20;;;;;;;35.72;18.52;;;;;;;0.42;100.00;102990.75;5074453;28;20020;-69
2022/01/13 12:47:07;;;;;;;40.78;19.77;;;;;;;0.57;100.00;102988.19;5074063;28;20341;-70
2022/01/13 12:49:53;;;;;;;40.28;18.98;;;;;;;0.85;100.00;102989.00;5073808;28;20024;-71
2022/01/13 12:52:38;;;;;;;37.50;19.35;;;;;;;0.80;100.00;102988.72;5074473;28;20032;-70
2022/01/13 12:55:25;;;;;;;37.55;19.25;;;;;;;0.78;100.00;102974.84;5074158;28;20182;-70
2022/01/13 12:58:12;;;;;;;42.15;21.25;;;;;;;0.82;100.00;102983.66;5059209;28;20457;-70
2022/01/13 13:01:01;;;;;;;41.55;20.50;;;;;;;1.04;100.00;102990.13;5074811;28;20040;-70
2022/01/13 13:04:08;;;;;;;38.85;19.70;;;;;;;0.95;100.00;102999.94;5074191;28;20449;-70
2022/01/13 13:06:55;;;;;;;37.58;19.70;;;;;;;0.96;100.00;102998.25;5059043;28;20356;-70
2022/01/13 13:09:41;;;;;;;39.45;19.63;;;;;;;0.96;100.00;103001.69;5073189;28;20029;-69
2022/01/13 13:12:27;;;;;;;34.13;18.73;;;;;;;1.16;100.00;103006.31;5074424;28;20093;-69
2022/01/13 13:18:05;;;;;;;32.30;16.60;;;;;;;1.34;100.00;103006.44;5074541;28;20441;-70
2022/01/13 13:20:51;;;;;;;35.15;17.88;;;;;;;1.31;100.00;102996.84;5073566;28;20477;-70
2022/01/13 13:23:40;;;;;;;30.13;15.73;;;;;;;1.08;100.00;102992.06;5074379;28;20040;-70
2022/01/13 13:26:26;;;;;;;29.38;16.35;;;;;;;1.26;100.00;102989.63;5074574;28;20025;-70
2022/01/13 13:29:22;;;;;;;28.80;16.33;;;;;;;1.05;100.00;102981.59;5060522;28;20035;-70
2022/01/13 13:32:08;;;;;;;33.50;16.92;;;;;;;1.21;100.00;102978.19;5059632;28;20090;-70
2022/01/13 13:34:57;;;;;;;35.38;16.73;;;;;;;1.05;100.00;102967.78;5075873;28;20028;-71
2022/01/13 13:37:46;;;;;;;31.25;16.75;;;;;;;1.11;100.00;102963.84;5063333;28;20021;-69
2022/01/13 13:40:32;;;;;;;29.45;16.30;;;;;;;1.09;100.00;102950.00;5076720;28;20094;-70
2022/01/13 13:43:18;;;;;;;32.15;16.10;;;;;;;1.15;100.00;102947.75;5077902;28;20052;-70
2022/01/13 13:46:04;;;;;;;33.40;18.55;;;;;;;1.34;100.00;102939.31;5075396;28;20093;-70
2022/01/13 13:48:50;;;;;;;29.98;16.38;;;;;;;1.47;100.00;102939.16;5077310;28;20020;-70
2022/01/13 13:51:37;;;;;;;31.58;14.65;;;;;;;1.39;100.00;102945.59;5076124;28;20416;-71
2022/01/13 13:54:35;;;;;;;25.67;13.73;;;;;;;1.37;100.00;102950.69;5076948;28;20033;-70
2022/01/13 13:57:32;;;;;;;29.30;14.25;;;;;;;1.37;100.00;102949.81;5076440;28;20024;-71
2022/01/13 14:00:20;;;;;;;27.25;13.80;;;;;;;1.32;100.00;102943.53;5077042;28;20063;-70
2022/01/13 14:11:58;;;;;;;25.25;14.48;;;;;;;1.20;100.00;102948.00;5378530;22;20131;-69
2022/01/13 14:14:44;;;;;;;27.70;14.45;;;;;;;1.15;100.00;102945.16;5036580;28;20029;-71
2022/01/13 14:23:50;;;;;;;25.20;14.38;;;;;;;1.03;100.00;102925.50;5015071;28;20054;-70
2022/01/13 14:26:36;;;;;;;27.58;14.90;;;;;;;1.02;100.00;102924.63;5027491;28;20025;-70
2022/01/13 14:29:22;;;;;;;29.75;15.50;;;;;;;0.94;100.00;102925.00;5037080;28;20035;-71
2022/01/13 14:32:34;;;;;;;32.17;15.43;;;;;;;1.01;100.00;102935.78;5020430;28;20037;-70
2022/01/13 14:35:27;;;;;;;27.65;15.18;;;;;;;0.99;100.00;102931.28;5036738;28;20025;-69
2022/01/13 14:38:15;;;;;;;27.95;15.15;;;;;;;0.69;100.00;102929.56;5035327;28;20034;-71
2022/01/13 14:41:01;;;;;;;30.38;15.80;;;;;;;0.62;100.00;102936.06;5034869;28;20040;-70
2022/01/13 14:47:30;;;;;;;27.92;15.57;;;;;;;0.53;100.00;102935.56;6019007;23;20058;-70
2022/01/13 14:50:16;;;;;;;29.20;16.65;;;;;;;0.66;100.00;102944.88;5054241;28;20068;-70
2022/01/13 14:53:02;;;;;;;29.60;15.57;;;;;;;0.72;100.00;102940.06;5054187;28;20353;-71
2022/01/13 14:55:49;;;;;;;31.58;16.23;;;;;;;0.68;100.00;102931.25;5053972;28;20381;-70
2022/01/13 14:58:35;;;;;;;27.20;14.98;;;;;;;0.69;100.00;102939.91;5055541;28;20024;-70
2022/01/13 15:01:22;;;;;;;29.58;15.25;;;;;;;0.58;100.00;102939.28;5055713;28;20445;-70
2022/01/13 15:04:08;;;;;;;26.88;15.30;;;;;;;0.52;100.00;102933.75;5055385;28;20452;-70
2022/01/13 15:06:54;;;;;;;27.13;15.50;;;;;;;0.60;100.00;102931.63;5055951;28;20366;-70
2022/01/13 15:15:57;;;;;;;34.10;17.27;;;;;;;0.58;100.00;102933.22;5090023;23;20064;-70
2022/01/13 15:18:44;;;;;;;26.90;15.60;;;;;;;0.43;100.00;102933.22;5055395;28;20468;-70
2022/01/13 15:21:31;;;;;;;34.17;17.13;;;;;;;0.50;100.00;102934.47;5054917;28;20040;-70
2022/01/13 15:50:59;;;;;;;33.55;17.70;;;;;;;0.41;100.00;102934.84;5328705;23;20071;-69
2022/01/13 15:53:47;;;;;;;32.28;16.98;;;;;;;0.30;100.00;102929.84;5053449;28;20170;-71
2022/01/13 15:56:33;;;;;;;31.05;16.65;;;;;;;0.25;100.00;102931.25;5053038;28;20040;-69
2022/01/13 15:59:19;;;;;;;30.25;15.98;;;;;;;0.19;100.00;102926.63;5054767;28;20021;-71
2022/01/13 16:02:04;;;;;;;29.40;16.40;;;;;;;0.25;100.00;102926.09;5054035;28;20100;-71
2022/01/13 16:04:51;;;;;;;33.08;16.90;;;;;;;0.23;100.00;102925.16;5053686;28;20083;-72
2022/01/13 16:07:37;;;;;;;32.50;17.10;;;;;;;0.08;100.00;102923.41;5054485;28;20473;-69
2022/01/13 16:19:27;;;;;;;33.03;17.58;;;;;;;0.03;100.00;102896.50;5788608;23;20060;-70
2022/01/13 16:22:13;;;;;;;34.80;18.27;;;;;;;0.11;100.00;102890.91;5052141;28;20094;-70
2022/01/13 16:24:59;;;;;;;35.67;17.73;;;;;;;-0.09;100.00;102892.28;5052335;28;20029;-70
2022/01/13 16:27:45;;;;;;;32.35;17.45;;;;;;;-0.06;100.00;102890.81;5032728;28;20053;-69
2022/01/13 16:30:31;;;;;;;37.72;19.10;;;;;;;0.13;100.00;102877.31;5033314;28;20045;-69
2022/01/13 16:33:16;;;;;;;37.22;18.48;;;;;;;0.09;100.00;102872.78;5032922;28;20124;-70
2022/01/13 16:36:02;;;;;;;32.80;17.55;;;;;;;-0.06;100.00;102879.59;5032932;28;20029;-71
2022/01/13 16:38:49;;;;;;;33.30;18.42;;;;;;;-0.04;100.00;102871.16;5032919;28;20021;-69
2022/01/13 16:45:26;;;;;;;34.10;18.17;;;;;;;-0.05;100.00;102860.75;5032073;28;20041;-70
2022/01/13 16:48:18;;;;;;;35.95;18.85;;;;;;;-0.17;100.00;102854.88;5033204;28;20021;-70
2022/01/13 16:51:03;;;;;;;35.75;18.65;;;;;;;-0.21;100.00;102855.50;5032543;28;20057;-70
2022/01/13 16:53:49;;;;;;;39.83;19.15;;;;;;;-0.26;100.00;102856.91;5033690;28;20032;-70
2022/01/13 16:56:35;;;;;;;40.28;19.80;;;;;;;-0.25;100.00;102858.69;5053065;28;20040;-69
2022/01/13 16:59:21;;;;;;;40.83;20.63;;;;;;;-0.30;100.00;102852.38;5053035;28;20457;-69
2022/01/13 17:02:09;;;;;;;43.95;21.17;;;;;;;-0.33;100.00;102860.81;5053388;28;20366;-69
2022/01/13 17:04:55;;;;;;;41.58;20.73;;;;;;;-0.14;100.00;102857.66;5052986;28;20025;-69
2022/01/13 17:07:42;;;;;;;45.17;21.45;;;;;;;-0.38;100.00;102864.81;5040314;28;20120;-69
2022/01/13 17:10:34;;;;;;;40.70;21.13;;;;;;;-0.28;100.00;102866.25;5057178;28;20025;-70
2022/01/13 17:13:20;;;;;;;42.42;20.33;;;;;;;-0.18;100.00;102851.44;5043825;28;20471;-69
2022/01/13 17:16:06;;;;;;;40.90;21.27;;;;;;;-0.09;100.00;102845.91;5056957;28;20120;-71
2022/01/13 17:18:52;;;;;;;41.67;21.02;;;;;;;-0.32;100.00;102835.97;5056996;28;20029;-70
2022/01/13 17:21:37;;;;;;;41.00;21.33;;;;;;;-0.40;100.00;102832.91;5056011;28;20040;-71
2022/01/13 17:24:23;;;;;;;41.05;20.42;;;;;;;-0.39;100.00;102838.97;5041858;28;20025;-71
2022/01/13 17:27:09;;;;;;;40.83;21.33;;;;;;;-0.37;100.00;102821.91;5056102;28;20179;-70
2022/01/13 17:29:54;;;;;;;42.97;21.05;;;;;;;-0.32;100.00;102817.94;5056191;28;20017;-69
2022/01/13 17:32:40;;;;;;;41.83;20.05;;;;;;;-0.46;100.00;102818.78;5057776;28;20342;-70
2022/01/13 17:35:26;;;;;;;33.65;18.67;;;;;;;-0.47;100.00;102815.31;5057043;28;20112;-70
2022/01/13 17:38:12;;;;;;;34.28;18.45;;;;;;;-0.45;100.00;102823.13;5055111;28;20021;-70
2022/01/13 17:52:18;;;;;;;37.17;18.48;;;;;;;-0.54;100.00;102804.56;5015916;28;20053;-70
2022/01/13 17:55:04;;;;;;;30.85;17.65;;;;;;;-0.67;100.00;102805.53;5016481;28;20465;-70
2022/01/13 17:57:50;;;;;;;36.10;18.13;;;;;;;-0.55;100.00;102795.06;4997152;28;20041;-69
2022/01/13 18:00:36;;;;;;;39.75;18.65;;;;;;;-0.62;100.00;102801.53;4998161;28;20022;-70
2022/01/13 18:03:22;;;;;;;44.30;21.73;;;;;;;-0.61;100.00;102799.84;4998449;28;20092;-73
2022/01/13 18:06:08;;;;;;;38.70;20.05;;;;;;;-0.60;100.00;102802.50;4997607;28;20033;-73
2022/01/13 18:08:54;;;;;;;40.17;19.67;;;;;;;-0.64;100.00;102794.53;4997243;28;20033;-73
2022/01/13 18:15:23;;;;;;;39.67;19.23;;;;;;;-0.66;100.00;102791.84;4996806;28;20026;-70
2022/01/13 18:18:08;;;;;;;38.88;19.35;;;;;;;-0.62;100.00;102792.91;4997604;28;20119;-70
2022/01/13 18:20:54;;;;;;;40.13;20.05;;;;;;;-0.76;100.00;102789.50;4996496;28;20031;-71
2022/01/13 18:23:40;;;;;;;39.83;19.08;;;;;;;-0.82;100.00;102803.69;4996715;28;20034;-71
2022/01/13 18:26:26;;;;;;;34.75;18.55;;;;;;;-0.77;100.00;102810.00;4996942;28;20034;-72
2022/01/13 18:29:12;;;;;;;39.53;19.52;;;;;;;-0.47;100.00;102804.13;4997759;28;20027;-71
2022/01/13 18:31:57;;;;;;;40.78;20.10;;;;;;;-0.61;100.00;102800.72;4996260;28;20026;-70
2022/01/13 18:34:43;;;;;;;39.38;19.58;;;;;;;-0.74;100.00;102790.50;4996880;28;20400;-69
2022/01/13 18:37:29;;;;;;;36.65;19.00;;;;;;;-0.78;100.00;102800.50;4997441;28;20363;-71
2022/01/13 18:40:15;;;;;;;37.67;19.15;;;;;;;-0.89;100.00;102798.94;4997115;28;20073;-70
2022/01/13 18:43:01;;;;;;;35.08;18.15;;;;;;;-0.96;100.00;102799.41;4997320;28;20026;-69
2022/01/13 18:45:52;;;;;;;35.70;19.63;;;;;;;-1.02;100.00;102799.00;4996564;28;20120;-69